sensor_id;sensor_type;location;lat;lon;timestamp;P1;durP1;ratioP1;P2;durP2;ratioP2
14516;SDS011;7344;50.864;4.362;2023-03-23T00:00:45;6.53;;;5.83;;
14516;SDS011;7344;50.864;4.362;2023-03-23T00:03:10;9.70;;;6.80;;
14516;SDS011;7344;50.864;4.362;2023-03-23T00:05:37;8.43;;;6.37;;
14516;SDS011;7344;50.864;4.362;2023-03-23T00:08:06;8.80;;;6.30;;
14516;SDS011;7344;50.864;4.362;2023-03-23T00:10:34;7.10;;;5.80;;
14516;SDS011;7344;50.864;4.362;2023-03-23T00:13:00;8.33;;;5.30;;
14516;SDS011;7344;50.864;4.362;2023-03-23T00:15:27;6.10;;;5.50;;
14516;SDS011;7344;50.864;4.362;2023-03-23T00:17:58;5.80;;;5.17;;
14516;SDS011;7344;50.864;4.362;2023-03-23T00:20:30;5.60;;;5.00;;
14516;SDS011;7344;50.864;4.362;2023-03-23T00:23:04;7.77;;;5.43;;
14516;SDS011;7344;50.864;4.362;2023-03-23T00:25:31;5.67;;;5.10;;
14516;SDS011;7344;50.864;4.362;2023-03-23T00:27:57;6.23;;;5.07;;
14516;SDS011;7344;50.864;4.362;2023-03-23T00:30:23;5.80;;;4.90;;
14516;SDS011;7344;50.864;4.362;2023-03-23T00:32:48;6.30;;;5.07;;
14516;SDS011;7344;50.864;4.362;2023-03-23T00:35:15;5.77;;;5.17;;
14516;SDS011;7344;50.864;4.362;2023-03-23T00:37:42;5.10;;;4.70;;
14516;SDS011;7344;50.864;4.362;2023-03-23T00:40:09;6.73;;;4.80;;
14516;SDS011;7344;50.864;4.362;2023-03-23T00:42:35;5.67;;;5.07;;
14516;SDS011;7344;50.864;4.362;2023-03-23T00:45:03;5.97;;;5.37;;
14516;SDS011;7344;50.864;4.362;2023-03-23T00:47:35;5.50;;;5.00;;
14516;SDS011;7344;50.864;4.362;2023-03-23T00:50:02;5.00;;;4.50;;
14516;SDS011;7344;50.864;4.362;2023-03-23T00:52:28;4.80;;;4.40;;
14516;SDS011;7344;50.864;4.362;2023-03-23T00:54:54;6.43;;;4.70;;
14516;SDS011;7344;50.864;4.362;2023-03-23T00:57:20;4.73;;;4.33;;
14516;SDS011;7344;50.864;4.362;2023-03-23T00:59:49;5.07;;;4.57;;
14516;SDS011;7344;50.864;4.362;2023-03-23T01:02:15;5.23;;;4.50;;
14516;SDS011;7344;50.864;4.362;2023-03-23T01:04:41;5.20;;;4.70;;
14516;SDS011;7344;50.864;4.362;2023-03-23T01:07:09;5.27;;;4.73;;
14516;SDS011;7344;50.864;4.362;2023-03-23T01:09:37;5.13;;;4.67;;
14516;SDS011;7344;50.864;4.362;2023-03-23T01:12:09;5.83;;;5.23;;
14516;SDS011;7344;50.864;4.362;2023-03-23T01:14:35;5.00;;;4.60;;
14516;SDS011;7344;50.864;4.362;2023-03-23T01:17:01;5.93;;;5.00;;
14516;SDS011;7344;50.864;4.362;2023-03-23T01:19:26;4.90;;;4.60;;
14516;SDS011;7344;50.864;4.362;2023-03-23T01:21:52;5.10;;;4.60;;
14516;SDS011;7344;50.864;4.362;2023-03-23T01:24:18;7.10;;;5.20;;
14516;SDS011;7344;50.864;4.362;2023-03-23T01:26:43;5.43;;;4.87;;
14516;SDS011;7344;50.864;4.362;2023-03-23T01:29:09;5.10;;;4.60;;
14516;SDS011;7344;50.864;4.362;2023-03-23T01:31:35;5.87;;;4.90;;
14516;SDS011;7344;50.864;4.362;2023-03-23T01:34:02;5.63;;;5.13;;
14516;SDS011;7344;50.864;4.362;2023-03-23T01:36:28;4.70;;;4.33;;
14516;SDS011;7344;50.864;4.362;2023-03-23T01:38:57;4.20;;;3.90;;
14516;SDS011;7344;50.864;4.362;2023-03-23T01:41:26;4.77;;;4.47;;
14516;SDS011;7344;50.864;4.362;2023-03-23T01:46:30;4.50;;;4.10;;
14516;SDS011;7344;50.864;4.362;2023-03-23T01:48:58;5.33;;;4.70;;
14516;SDS011;7344;50.864;4.362;2023-03-23T01:51:40;4.80;;;4.40;;
14516;SDS011;7344;50.864;4.362;2023-03-23T01:54:12;5.57;;;5.07;;
14516;SDS011;7344;50.864;4.362;2023-03-23T01:56:54;4.77;;;4.37;;
14516;SDS011;7344;50.864;4.362;2023-03-23T01:59:32;5.40;;;4.57;;
14516;SDS011;7344;50.864;4.362;2023-03-23T02:02:00;5.73;;;4.67;;
14516;SDS011;7344;50.864;4.362;2023-03-23T02:04:27;4.87;;;4.47;;
14516;SDS011;7344;50.864;4.362;2023-03-23T02:06:53;4.80;;;4.27;;
14516;SDS011;7344;50.864;4.362;2023-03-23T02:09:21;7.27;;;4.50;;
14516;SDS011;7344;50.864;4.362;2023-03-23T02:11:47;5.97;;;4.73;;
14516;SDS011;7344;50.864;4.362;2023-03-23T02:14:15;5.17;;;3.83;;
14516;SDS011;7344;50.864;4.362;2023-03-23T02:16:44;4.00;;;3.70;;
14516;SDS011;7344;50.864;4.362;2023-03-23T02:22:17;3.40;;;3.00;;
14516;SDS011;7344;50.864;4.362;2023-03-23T02:27:48;4.10;;;2.90;;
14516;SDS011;7344;50.864;4.362;2023-03-23T02:33:27;4.23;;;2.40;;
14516;SDS011;7344;50.864;4.362;2023-03-23T02:36:01;4.30;;;2.50;;
14516;SDS011;7344;50.864;4.362;2023-03-23T02:38:36;3.43;;;2.00;;
14516;SDS011;7344;50.864;4.362;2023-03-23T02:41:08;2.73;;;2.13;;
14516;SDS011;7344;50.864;4.362;2023-03-23T02:43:39;4.00;;;2.10;;
14516;SDS011;7344;50.864;4.362;2023-03-23T02:46:08;3.43;;;2.00;;
14516;SDS011;7344;50.864;4.362;2023-03-23T02:48:35;4.13;;;2.33;;
14516;SDS011;7344;50.864;4.362;2023-03-23T02:51:03;3.57;;;1.87;;
14516;SDS011;7344;50.864;4.362;2023-03-23T02:53:29;2.33;;;1.73;;
14516;SDS011;7344;50.864;4.362;2023-03-23T02:55:58;2.53;;;2.00;;
14516;SDS011;7344;50.864;4.362;2023-03-23T02:58:27;2.50;;;1.67;;
14516;SDS011;7344;50.864;4.362;2023-03-23T03:00:54;3.07;;;1.90;;
14516;SDS011;7344;50.864;4.362;2023-03-23T03:03:21;2.77;;;1.80;;
14516;SDS011;7344;50.864;4.362;2023-03-23T03:06:10;4.13;;;1.83;;
14516;SDS011;7344;50.864;4.362;2023-03-23T03:08:50;2.07;;;1.63;;
14516;SDS011;7344;50.864;4.362;2023-03-23T03:11:22;3.03;;;1.60;;
14516;SDS011;7344;50.864;4.362;2023-03-23T03:13:52;3.97;;;1.80;;
14516;SDS011;7344;50.864;4.362;2023-03-23T03:17:01;2.73;;;1.53;;
14516;SDS011;7344;50.864;4.362;2023-03-23T03:19:33;2.33;;;1.40;;
14516;SDS011;7344;50.864;4.362;2023-03-23T03:22:03;1.57;;;1.40;;
14516;SDS011;7344;50.864;4.362;2023-03-23T03:24:29;2.40;;;1.53;;
14516;SDS011;7344;50.864;4.362;2023-03-23T03:26:57;1.70;;;1.60;;
14516;SDS011;7344;50.864;4.362;2023-03-23T03:29:35;4.20;;;1.50;;
14516;SDS011;7344;50.864;4.362;2023-03-23T03:32:03;2.03;;;1.70;;
14516;SDS011;7344;50.864;4.362;2023-03-23T03:34:32;2.67;;;1.50;;
14516;SDS011;7344;50.864;4.362;2023-03-23T03:36:58;2.73;;;1.50;;
14516;SDS011;7344;50.864;4.362;2023-03-23T03:39:25;6.17;;;1.67;;
14516;SDS011;7344;50.864;4.362;2023-03-23T03:41:52;2.37;;;1.60;;
14516;SDS011;7344;50.864;4.362;2023-03-23T03:44:19;4.20;;;1.90;;
14516;SDS011;7344;50.864;4.362;2023-03-23T03:46:44;3.40;;;1.90;;
14516;SDS011;7344;50.864;4.362;2023-03-23T03:49:10;4.13;;;1.80;;
14516;SDS011;7344;50.864;4.362;2023-03-23T03:51:40;3.77;;;1.53;;
14516;SDS011;7344;50.864;4.362;2023-03-23T03:54:06;5.87;;;1.73;;
14516;SDS011;7344;50.864;4.362;2023-03-23T03:56:32;3.37;;;1.70;;
14516;SDS011;7344;50.864;4.362;2023-03-23T03:59:01;3.67;;;1.83;;
14516;SDS011;7344;50.864;4.362;2023-03-23T04:01:27;6.30;;;1.63;;
14516;SDS011;7344;50.864;4.362;2023-03-23T04:03:53;6.40;;;2.07;;
14516;SDS011;7344;50.864;4.362;2023-03-23T04:06:19;5.47;;;1.90;;
14516;SDS011;7344;50.864;4.362;2023-03-23T04:08:46;4.57;;;1.90;;
14516;SDS011;7344;50.864;4.362;2023-03-23T04:11:12;5.50;;;2.20;;
14516;SDS011;7344;50.864;4.362;2023-03-23T04:13:39;7.13;;;2.30;;
14516;SDS011;7344;50.864;4.362;2023-03-23T04:16:05;6.03;;;2.30;;
14516;SDS011;7344;50.864;4.362;2023-03-23T04:18:32;6.73;;;1.70;;
14516;SDS011;7344;50.864;4.362;2023-03-23T04:20:59;8.67;;;2.47;;
14516;SDS011;7344;50.864;4.362;2023-03-23T04:23:26;7.23;;;2.43;;
14516;SDS011;7344;50.864;4.362;2023-03-23T04:25:52;6.13;;;2.07;;
14516;SDS011;7344;50.864;4.362;2023-03-23T04:28:22;5.47;;;2.00;;
14516;SDS011;7344;50.864;4.362;2023-03-23T04:30:49;7.17;;;2.03;;
14516;SDS011;7344;50.864;4.362;2023-03-23T04:33:18;4.70;;;1.97;;
14516;SDS011;7344;50.864;4.362;2023-03-23T04:35:45;5.37;;;1.90;;
14516;SDS011;7344;50.864;4.362;2023-03-23T04:38:13;6.70;;;2.20;;
14516;SDS011;7344;50.864;4.362;2023-03-23T04:40:41;3.43;;;2.20;;
14516;SDS011;7344;50.864;4.362;2023-03-23T04:43:07;4.80;;;1.70;;
14516;SDS011;7344;50.864;4.362;2023-03-23T04:45:34;3.90;;;1.80;;
14516;SDS011;7344;50.864;4.362;2023-03-23T04:48:03;7.27;;;2.00;;
14516;SDS011;7344;50.864;4.362;2023-03-23T04:50:30;3.73;;;1.53;;
14516;SDS011;7344;50.864;4.362;2023-03-23T04:52:58;4.47;;;1.57;;
14516;SDS011;7344;50.864;4.362;2023-03-23T04:55:29;5.10;;;1.90;;
14516;SDS011;7344;50.864;4.362;2023-03-23T04:57:56;5.27;;;1.70;;
14516;SDS011;7344;50.864;4.362;2023-03-23T05:00:26;2.77;;;1.80;;
14516;SDS011;7344;50.864;4.362;2023-03-23T05:02:52;7.23;;;2.07;;
14516;SDS011;7344;50.864;4.362;2023-03-23T05:05:20;5.30;;;1.73;;
14516;SDS011;7344;50.864;4.362;2023-03-23T05:07:46;3.00;;;1.50;;
14516;SDS011;7344;50.864;4.362;2023-03-23T05:10:12;2.80;;;1.60;;
14516;SDS011;7344;50.864;4.362;2023-03-23T05:12:38;5.17;;;1.70;;
14516;SDS011;7344;50.864;4.362;2023-03-23T05:15:05;4.83;;;1.90;;
14516;SDS011;7344;50.864;4.362;2023-03-23T05:17:31;3.60;;;1.73;;
14516;SDS011;7344;50.864;4.362;2023-03-23T05:19:58;4.20;;;1.83;;
14516;SDS011;7344;50.864;4.362;2023-03-23T05:22:27;5.60;;;1.90;;
14516;SDS011;7344;50.864;4.362;2023-03-23T05:24:53;3.47;;;1.50;;
14516;SDS011;7344;50.864;4.362;2023-03-23T05:27:19;4.53;;;1.50;;
14516;SDS011;7344;50.864;4.362;2023-03-23T05:29:45;5.53;;;2.03;;
14516;SDS011;7344;50.864;4.362;2023-03-23T05:32:13;4.63;;;1.90;;
14516;SDS011;7344;50.864;4.362;2023-03-23T05:34:40;3.57;;;2.00;;
14516;SDS011;7344;50.864;4.362;2023-03-23T05:37:07;3.27;;;2.10;;
14516;SDS011;7344;50.864;4.362;2023-03-23T05:39:34;7.23;;;2.10;;
14516;SDS011;7344;50.864;4.362;2023-03-23T05:42:00;4.17;;;2.07;;
14516;SDS011;7344;50.864;4.362;2023-03-23T05:44:26;6.03;;;2.13;;
14516;SDS011;7344;50.864;4.362;2023-03-23T05:46:52;7.10;;;2.73;;
14516;SDS011;7344;50.864;4.362;2023-03-23T05:49:17;5.53;;;2.30;;
14516;SDS011;7344;50.864;4.362;2023-03-23T05:51:44;6.57;;;2.23;;
14516;SDS011;7344;50.864;4.362;2023-03-23T05:54:15;6.23;;;2.20;;
14516;SDS011;7344;50.864;4.362;2023-03-23T05:56:41;5.63;;;2.47;;
14516;SDS011;7344;50.864;4.362;2023-03-23T05:59:07;7.73;;;2.50;;
14516;SDS011;7344;50.864;4.362;2023-03-23T06:01:35;5.73;;;2.20;;
14516;SDS011;7344;50.864;4.362;2023-03-23T06:04:02;6.30;;;2.40;;
14516;SDS011;7344;50.864;4.362;2023-03-23T06:06:29;6.97;;;2.50;;
14516;SDS011;7344;50.864;4.362;2023-03-23T06:08:56;7.77;;;2.40;;
14516;SDS011;7344;50.864;4.362;2023-03-23T06:11:23;3.93;;;2.30;;
14516;SDS011;7344;50.864;4.362;2023-03-23T06:13:49;5.97;;;2.07;;
14516;SDS011;7344;50.864;4.362;2023-03-23T06:16:15;6.13;;;2.20;;
14516;SDS011;7344;50.864;4.362;2023-03-23T06:18:41;6.10;;;2.17;;
14516;SDS011;7344;50.864;4.362;2023-03-23T06:21:07;5.97;;;2.03;;
14516;SDS011;7344;50.864;4.362;2023-03-23T06:23:34;4.60;;;2.10;;
14516;SDS011;7344;50.864;4.362;2023-03-23T06:26:00;6.57;;;2.57;;
14516;SDS011;7344;50.864;4.362;2023-03-23T06:28:28;4.70;;;2.30;;
14516;SDS011;7344;50.864;4.362;2023-03-23T06:30:54;5.90;;;2.43;;
14516;SDS011;7344;50.864;4.362;2023-03-23T06:33:20;9.93;;;2.40;;
14516;SDS011;7344;50.864;4.362;2023-03-23T06:35:46;7.50;;;2.33;;
14516;SDS011;7344;50.864;4.362;2023-03-23T06:38:13;6.13;;;2.20;;
14516;SDS011;7344;50.864;4.362;2023-03-23T06:40:38;4.83;;;2.33;;
14516;SDS011;7344;50.864;4.362;2023-03-23T06:43:04;4.90;;;2.57;;
14516;SDS011;7344;50.864;4.362;2023-03-23T06:45:30;9.80;;;2.53;;
14516;SDS011;7344;50.864;4.362;2023-03-23T06:47:58;7.80;;;2.57;;
14516;SDS011;7344;50.864;4.362;2023-03-23T06:50:23;11.40;;;2.40;;
14516;SDS011;7344;50.864;4.362;2023-03-23T06:52:50;5.60;;;2.50;;
14516;SDS011;7344;50.864;4.362;2023-03-23T06:55:16;7.27;;;2.57;;
14516;SDS011;7344;50.864;4.362;2023-03-23T06:57:42;8.30;;;2.53;;
14516;SDS011;7344;50.864;4.362;2023-03-23T07:00:10;4.17;;;2.27;;
14516;SDS011;7344;50.864;4.362;2023-03-23T07:02:38;6.83;;;2.13;;
14516;SDS011;7344;50.864;4.362;2023-03-23T07:05:04;4.40;;;1.53;;
14516;SDS011;7344;50.864;4.362;2023-03-23T07:07:30;3.63;;;0.90;;
14516;SDS011;7344;50.864;4.362;2023-03-23T07:09:56;1.17;;;1.07;;
14516;SDS011;7344;50.864;4.362;2023-03-23T07:12:22;2.40;;;1.33;;
14516;SDS011;7344;50.864;4.362;2023-03-23T07:14:48;3.03;;;1.50;;
14516;SDS011;7344;50.864;4.362;2023-03-23T07:17:14;5.33;;;1.03;;
14516;SDS011;7344;50.864;4.362;2023-03-23T07:19:40;2.47;;;1.40;;
14516;SDS011;7344;50.864;4.362;2023-03-23T07:22:06;2.37;;;1.00;;
14516;SDS011;7344;50.864;4.362;2023-03-23T07:24:32;2.57;;;1.30;;
14516;SDS011;7344;50.864;4.362;2023-03-23T07:26:59;2.50;;;1.40;;
14516;SDS011;7344;50.864;4.362;2023-03-23T07:29:25;3.13;;;1.00;;
14516;SDS011;7344;50.864;4.362;2023-03-23T07:31:51;3.07;;;0.97;;
14516;SDS011;7344;50.864;4.362;2023-03-23T07:34:18;4.37;;;1.60;;
14516;SDS011;7344;50.864;4.362;2023-03-23T07:36:44;2.97;;;1.50;;
14516;SDS011;7344;50.864;4.362;2023-03-23T07:39:10;6.37;;;1.83;;
14516;SDS011;7344;50.864;4.362;2023-03-23T07:41:37;4.83;;;2.03;;
14516;SDS011;7344;50.864;4.362;2023-03-23T07:44:03;7.73;;;2.37;;
14516;SDS011;7344;50.864;4.362;2023-03-23T07:46:30;5.47;;;2.33;;
14516;SDS011;7344;50.864;4.362;2023-03-23T07:48:57;7.47;;;2.17;;
14516;SDS011;7344;50.864;4.362;2023-03-23T07:51:23;4.17;;;2.33;;
14516;SDS011;7344;50.864;4.362;2023-03-23T07:53:49;7.47;;;2.37;;
14516;SDS011;7344;50.864;4.362;2023-03-23T07:56:16;4.90;;;2.00;;
14516;SDS011;7344;50.864;4.362;2023-03-23T07:58:47;5.27;;;2.40;;
14516;SDS011;7344;50.864;4.362;2023-03-23T08:01:13;3.30;;;2.30;;
14516;SDS011;7344;50.864;4.362;2023-03-23T08:03:39;6.53;;;2.10;;
14516;SDS011;7344;50.864;4.362;2023-03-23T08:06:07;5.57;;;2.00;;
14516;SDS011;7344;50.864;4.362;2023-03-23T08:08:34;2.37;;;1.87;;
14516;SDS011;7344;50.864;4.362;2023-03-23T08:11:02;4.93;;;2.00;;
14516;SDS011;7344;50.864;4.362;2023-03-23T08:13:27;4.23;;;1.80;;
14516;SDS011;7344;50.864;4.362;2023-03-23T08:15:54;4.93;;;1.50;;
14516;SDS011;7344;50.864;4.362;2023-03-23T08:18:20;5.57;;;2.07;;
14516;SDS011;7344;50.864;4.362;2023-03-23T08:20:45;6.03;;;1.83;;
14516;SDS011;7344;50.864;4.362;2023-03-23T08:23:17;2.07;;;1.53;;
14516;SDS011;7344;50.864;4.362;2023-03-23T08:25:42;3.10;;;1.80;;
14516;SDS011;7344;50.864;4.362;2023-03-23T08:28:08;4.03;;;1.70;;
14516;SDS011;7344;50.864;4.362;2023-03-23T08:30:34;3.47;;;1.53;;
14516;SDS011;7344;50.864;4.362;2023-03-23T08:33:04;3.87;;;1.50;;
14516;SDS011;7344;50.864;4.362;2023-03-23T08:35:30;2.93;;;1.60;;
14516;SDS011;7344;50.864;4.362;2023-03-23T08:37:59;5.47;;;1.70;;
14516;SDS011;7344;50.864;4.362;2023-03-23T08:40:25;6.73;;;2.00;;
14516;SDS011;7344;50.864;4.362;2023-03-23T08:42:52;6.33;;;1.90;;
14516;SDS011;7344;50.864;4.362;2023-03-23T08:45:22;4.20;;;1.70;;
14516;SDS011;7344;50.864;4.362;2023-03-23T08:47:50;3.73;;;1.90;;
14516;SDS011;7344;50.864;4.362;2023-03-23T08:50:21;3.30;;;1.70;;
14516;SDS011;7344;50.864;4.362;2023-03-23T08:52:49;6.53;;;1.90;;
14516;SDS011;7344;50.864;4.362;2023-03-23T08:55:16;3.90;;;1.93;;
14516;SDS011;7344;50.864;4.362;2023-03-23T08:57:43;6.53;;;1.97;;
14516;SDS011;7344;50.864;4.362;2023-03-23T09:00:10;6.63;;;1.83;;
14516;SDS011;7344;50.864;4.362;2023-03-23T09:02:42;6.53;;;1.70;;
14516;SDS011;7344;50.864;4.362;2023-03-23T09:05:10;4.90;;;1.30;;
14516;SDS011;7344;50.864;4.362;2023-03-23T09:07:41;3.63;;;2.00;;
14516;SDS011;7344;50.864;4.362;2023-03-23T09:10:09;4.10;;;1.63;;
14516;SDS011;7344;50.864;4.362;2023-03-23T09:12:35;5.47;;;2.10;;
14516;SDS011;7344;50.864;4.362;2023-03-23T09:15:01;3.03;;;1.67;;
14516;SDS011;7344;50.864;4.362;2023-03-23T09:17:44;3.60;;;1.63;;
14516;SDS011;7344;50.864;4.362;2023-03-23T09:20:11;3.77;;;1.93;;
14516;SDS011;7344;50.864;4.362;2023-03-23T09:22:39;5.63;;;2.13;;
14516;SDS011;7344;50.864;4.362;2023-03-23T09:25:07;5.13;;;2.13;;
14516;SDS011;7344;50.864;4.362;2023-03-23T09:27:34;8.13;;;2.13;;
14516;SDS011;7344;50.864;4.362;2023-03-23T09:30:05;6.80;;;2.03;;
14516;SDS011;7344;50.864;4.362;2023-03-23T09:32:33;10.37;;;2.17;;
14516;SDS011;7344;50.864;4.362;2023-03-23T09:35:00;6.50;;;2.00;;
14516;SDS011;7344;50.864;4.362;2023-03-23T09:37:33;6.83;;;2.23;;
14516;SDS011;7344;50.864;4.362;2023-03-23T09:40:01;5.13;;;2.10;;
14516;SDS011;7344;50.864;4.362;2023-03-23T09:45:54;2.93;;;1.90;;
14516;SDS011;7344;50.864;4.362;2023-03-23T09:51:00;5.07;;;1.93;;
14516;SDS011;7344;50.864;4.362;2023-03-23T09:53:46;4.17;;;2.20;;
14516;SDS011;7344;50.864;4.362;2023-03-23T09:56:16;3.40;;;1.90;;
14516;SDS011;7344;50.864;4.362;2023-03-23T09:58:45;5.13;;;1.70;;
14516;SDS011;7344;50.864;4.362;2023-03-23T10:01:28;3.63;;;1.80;;
14516;SDS011;7344;50.864;4.362;2023-03-23T10:06:51;3.70;;;1.90;;
14516;SDS011;7344;50.864;4.362;2023-03-23T10:09:21;3.93;;;1.80;;
14516;SDS011;7344;50.864;4.362;2023-03-23T10:11:56;2.10;;;1.93;;
14516;SDS011;7344;50.864;4.362;2023-03-23T10:14:39;5.73;;;1.90;;
14516;SDS011;7344;50.864;4.362;2023-03-23T10:22:12;4.80;;;1.97;;
14516;SDS011;7344;50.864;4.362;2023-03-23T10:24:57;4.53;;;2.40;;
14516;SDS011;7344;50.864;4.362;2023-03-23T10:27:33;3.93;;;2.00;;
14516;SDS011;7344;50.864;4.362;2023-03-23T10:32:56;3.93;;;2.07;;
14516;SDS011;7344;50.864;4.362;2023-03-23T10:35:28;6.03;;;2.17;;
14516;SDS011;7344;50.864;4.362;2023-03-23T10:38:13;5.47;;;2.37;;
14516;SDS011;7344;50.864;4.362;2023-03-23T10:40:50;5.50;;;2.43;;
14516;SDS011;7344;50.864;4.362;2023-03-23T10:43:20;5.27;;;2.40;;
14516;SDS011;7344;50.864;4.362;2023-03-23T10:45:48;3.83;;;2.60;;
14516;SDS011;7344;50.864;4.362;2023-03-23T10:48:29;5.60;;;2.30;;
14516;SDS011;7344;50.864;4.362;2023-03-23T10:51:00;6.53;;;2.30;;
14516;SDS011;7344;50.864;4.362;2023-03-23T10:56:02;5.57;;;2.42;;
14516;SDS011;7344;50.864;4.362;2023-03-23T10:58:32;5.97;;;2.50;;
14516;SDS011;7344;50.864;4.362;2023-03-23T11:01:01;3.70;;;2.47;;
14516;SDS011;7344;50.864;4.362;2023-03-23T11:06:02;3.80;;;2.50;;
14516;SDS011;7344;50.864;4.362;2023-03-23T11:08:31;5.03;;;2.40;;
14516;SDS011;7344;50.864;4.362;2023-03-23T11:13:44;5.05;;;2.20;;
14516;SDS011;7344;50.864;4.362;2023-03-23T11:19:35;5.68;;;4.47;;
14516;SDS011;7344;50.864;4.362;2023-03-23T11:24:35;7.38;;;3.17;;
14516;SDS011;7344;50.864;4.362;2023-03-23T11:27:06;7.97;;;4.88;;
14516;SDS011;7344;50.864;4.362;2023-03-23T11:29:44;4.95;;;2.45;;
14516;SDS011;7344;50.864;4.362;2023-03-23T11:32:24;5.15;;;3.30;;
14516;SDS011;7344;50.864;4.362;2023-03-23T11:35:03;8.32;;;3.38;;
14516;SDS011;7344;50.864;4.362;2023-03-23T11:37:34;4.90;;;2.40;;
14516;SDS011;7344;50.864;4.362;2023-03-23T11:42:41;5.65;;;3.58;;
14516;SDS011;7344;50.864;4.362;2023-03-23T11:45:31;6.17;;;2.30;;
14516;SDS011;7344;50.864;4.362;2023-03-23T11:51:18;7.38;;;2.60;;
14516;SDS011;7344;50.864;4.362;2023-03-23T11:56:51;7.32;;;2.05;;
14516;SDS011;7344;50.864;4.362;2023-03-23T11:59:19;4.00;;;2.22;;
14516;SDS011;7344;50.864;4.362;2023-03-23T12:01:57;6.50;;;2.50;;
14516;SDS011;7344;50.864;4.362;2023-03-23T12:07:41;5.15;;;2.33;;
14516;SDS011;7344;50.864;4.362;2023-03-23T12:13:02;6.27;;;2.43;;
14516;SDS011;7344;50.864;4.362;2023-03-23T12:15:41;6.88;;;2.33;;
14516;SDS011;7344;50.864;4.362;2023-03-23T12:20:58;3.20;;;2.25;;
14516;SDS011;7344;50.864;4.362;2023-03-23T12:23:43;8.85;;;4.03;;
14516;SDS011;7344;50.864;4.362;2023-03-23T12:26:31;7.28;;;3.88;;
14516;SDS011;7344;50.864;4.362;2023-03-23T12:32:23;9.70;;;4.20;;
14516;SDS011;7344;50.864;4.362;2023-03-23T12:40:30;8.00;;;3.00;;
14516;SDS011;7344;50.864;4.362;2023-03-23T12:54:40;9.73;;;3.00;;
14516;SDS011;7344;50.864;4.362;2023-03-23T13:00:06;10.23;;;5.75;;
14516;SDS011;7344;50.864;4.362;2023-03-23T13:03:01;18.35;;;9.48;;
14516;SDS011;7344;50.864;4.362;2023-03-23T13:05:47;9.15;;;4.30;;
14516;SDS011;7344;50.864;4.362;2023-03-23T13:08:26;11.32;;;3.22;;
14516;SDS011;7344;50.864;4.362;2023-03-23T13:11:14;11.25;;;2.63;;
14516;SDS011;7344;50.864;4.362;2023-03-23T13:16:45;7.40;;;2.72;;
14516;SDS011;7344;50.864;4.362;2023-03-23T13:24:51;6.93;;;2.60;;
14516;SDS011;7344;50.864;4.362;2023-03-23T13:27:24;11.00;;;2.72;;
14516;SDS011;7344;50.864;4.362;2023-03-23T13:29:53;7.18;;;2.60;;
14516;SDS011;7344;50.864;4.362;2023-03-23T13:32:20;9.23;;;2.85;;
14516;SDS011;7344;50.864;4.362;2023-03-23T13:34:47;6.93;;;2.38;;
14516;SDS011;7344;50.864;4.362;2023-03-23T13:37:23;5.80;;;2.58;;
14516;SDS011;7344;50.864;4.362;2023-03-23T13:39:56;7.00;;;2.60;;
14516;SDS011;7344;50.864;4.362;2023-03-23T13:42:53;9.18;;;2.42;;
14516;SDS011;7344;50.864;4.362;2023-03-23T13:45:22;7.50;;;2.90;;
14516;SDS011;7344;50.864;4.362;2023-03-23T13:50:52;6.88;;;2.60;;
14516;SDS011;7344;50.864;4.362;2023-03-23T13:53:24;8.57;;;2.53;;
14516;SDS011;7344;50.864;4.362;2023-03-23T13:56:12;6.25;;;2.75;;
14516;SDS011;7344;50.864;4.362;2023-03-23T13:58:49;7.90;;;2.90;;
14516;SDS011;7344;50.864;4.362;2023-03-23T14:01:37;7.07;;;2.27;;
14516;SDS011;7344;50.864;4.362;2023-03-23T14:04:09;9.30;;;2.27;;
14516;SDS011;7344;50.864;4.362;2023-03-23T14:06:44;6.33;;;2.40;;
14516;SDS011;7344;50.864;4.362;2023-03-23T14:12:03;6.27;;;2.80;;
14516;SDS011;7344;50.864;4.362;2023-03-23T14:15:18;9.27;;;3.13;;
14516;SDS011;7344;50.864;4.362;2023-03-23T14:17:29;9.57;;;3.40;;
14516;SDS011;7344;50.864;4.362;2023-03-23T14:19:57;8.63;;;3.40;;
14516;SDS011;7344;50.864;4.362;2023-03-23T14:22:25;9.05;;;3.15;;
14516;SDS011;7344;50.864;4.362;2023-03-23T14:25:01;8.15;;;2.92;;
14516;SDS011;7344;50.864;4.362;2023-03-23T14:27:36;8.43;;;3.73;;
14516;SDS011;7344;50.864;4.362;2023-03-23T14:30:04;9.35;;;4.00;;
14516;SDS011;7344;50.864;4.362;2023-03-23T14:32:32;12.52;;;3.83;;
14516;SDS011;7344;50.864;4.362;2023-03-23T14:34:59;5.47;;;2.72;;
14516;SDS011;7344;50.864;4.362;2023-03-23T14:37:30;6.37;;;2.73;;
14516;SDS011;7344;50.864;4.362;2023-03-23T14:39:56;10.50;;;3.17;;
14516;SDS011;7344;50.864;4.362;2023-03-23T14:42:29;11.63;;;4.70;;
14516;SDS011;7344;50.864;4.362;2023-03-23T14:44:57;9.77;;;6.45;;
14516;SDS011;7344;50.864;4.362;2023-03-23T14:49:58;9.97;;;2.97;;
14516;SDS011;7344;50.864;4.362;2023-03-23T14:52:28;11.13;;;5.40;;
14516;SDS011;7344;50.864;4.362;2023-03-23T14:55:10;6.70;;;2.40;;
14516;SDS011;7344;50.864;4.362;2023-03-23T14:57:41;5.77;;;2.93;;
14516;SDS011;7344;50.864;4.362;2023-03-23T15:02:47;6.80;;;3.03;;
14516;SDS011;7344;50.864;4.362;2023-03-23T15:05:22;9.73;;;3.40;;
14516;SDS011;7344;50.864;4.362;2023-03-23T15:07:54;10.23;;;4.20;;
14516;SDS011;7344;50.864;4.362;2023-03-23T15:10:25;9.53;;;3.43;;
14516;SDS011;7344;50.864;4.362;2023-03-23T15:12:50;7.83;;;3.20;;
14516;SDS011;7344;50.864;4.362;2023-03-23T15:15:25;5.70;;;2.92;;
14516;SDS011;7344;50.864;4.362;2023-03-23T15:17:51;10.57;;;2.88;;
14516;SDS011;7344;50.864;4.362;2023-03-23T15:20:19;9.45;;;2.85;;
14516;SDS011;7344;50.864;4.362;2023-03-23T15:22:46;10.25;;;3.28;;
14516;SDS011;7344;50.864;4.362;2023-03-23T15:25:24;6.63;;;4.03;;
14516;SDS011;7344;50.864;4.362;2023-03-23T15:27:56;8.68;;;4.90;;
14516;SDS011;7344;50.864;4.362;2023-03-23T15:30:52;15.40;;;5.93;;
14516;SDS011;7344;50.864;4.362;2023-03-23T15:33:19;12.68;;;5.30;;
14516;SDS011;7344;50.864;4.362;2023-03-23T15:35:51;13.43;;;5.85;;
14516;SDS011;7344;50.864;4.362;2023-03-23T15:40:57;13.05;;;5.22;;
14516;SDS011;7344;50.864;4.362;2023-03-23T15:43:27;18.98;;;8.27;;
14516;SDS011;7344;50.864;4.362;2023-03-23T15:46:03;8.00;;;4.28;;
14516;SDS011;7344;50.864;4.362;2023-03-23T15:49:04;10.80;;;4.65;;
14516;SDS011;7344;50.864;4.362;2023-03-23T15:51:35;9.32;;;3.78;;
14516;SDS011;7344;50.864;4.362;2023-03-23T15:54:02;6.37;;;3.23;;
14516;SDS011;7344;50.864;4.362;2023-03-23T15:56:27;7.87;;;3.57;;
14516;SDS011;7344;50.864;4.362;2023-03-23T15:58:54;12.35;;;3.72;;
14516;SDS011;7344;50.864;4.362;2023-03-23T16:01:22;8.80;;;3.77;;
14516;SDS011;7344;50.864;4.362;2023-03-23T16:03:51;10.20;;;3.67;;
14516;SDS011;7344;50.864;4.362;2023-03-23T16:06:23;7.72;;;3.58;;
14516;SDS011;7344;50.864;4.362;2023-03-23T16:08:51;12.35;;;4.00;;
14516;SDS011;7344;50.864;4.362;2023-03-23T16:11:24;6.83;;;3.63;;
14516;SDS011;7344;50.864;4.362;2023-03-23T16:13:51;6.37;;;3.03;;
14516;SDS011;7344;50.864;4.362;2023-03-23T16:16:21;10.32;;;3.15;;
14516;SDS011;7344;50.864;4.362;2023-03-23T16:18:50;5.70;;;2.20;;
14516;SDS011;7344;50.864;4.362;2023-03-23T16:21:15;5.90;;;2.60;;
14516;SDS011;7344;50.864;4.362;2023-03-23T16:23:41;7.97;;;3.00;;
14516;SDS011;7344;50.864;4.362;2023-03-23T16:26:08;7.67;;;2.60;;
14516;SDS011;7344;50.864;4.362;2023-03-23T16:28:35;5.37;;;2.47;;
14516;SDS011;7344;50.864;4.362;2023-03-23T16:31:00;7.90;;;2.70;;
14516;SDS011;7344;50.864;4.362;2023-03-23T16:33:26;8.45;;;3.20;;
14516;SDS011;7344;50.864;4.362;2023-03-23T16:35:51;10.10;;;3.37;;
14516;SDS011;7344;50.864;4.362;2023-03-23T16:38:20;7.57;;;4.00;;
14516;SDS011;7344;50.864;4.362;2023-03-23T16:40:46;9.00;;;4.00;;
14516;SDS011;7344;50.864;4.362;2023-03-23T16:43:11;9.80;;;4.63;;
14516;SDS011;7344;50.864;4.362;2023-03-23T16:45:42;9.47;;;4.30;;
14516;SDS011;7344;50.864;4.362;2023-03-23T16:48:09;11.83;;;4.50;;
14516;SDS011;7344;50.864;4.362;2023-03-23T16:50:36;10.83;;;4.50;;
14516;SDS011;7344;50.864;4.362;2023-03-23T16:53:03;10.77;;;4.33;;
14516;SDS011;7344;50.864;4.362;2023-03-23T16:55:30;6.80;;;3.47;;
14516;SDS011;7344;50.864;4.362;2023-03-23T16:57:56;6.80;;;3.30;;
14516;SDS011;7344;50.864;4.362;2023-03-23T17:00:23;6.30;;;3.33;;